createdAt,value
2016-08-13T00:00:34.388Z,0.00
2016-08-13T00:01:34.763Z,0.00
2016-08-13T00:02:35.710Z,0.00
2016-08-13T00:03:36.108Z,0.00
2016-08-13T00:04:36.176Z,0.00
2016-08-13T00:05:36.841Z,0.00
2016-08-13T00:06:37.668Z,0.00
2016-08-13T00:07:37.909Z,0.00
2016-08-13T00:08:39.017Z,0.00
2016-08-13T00:09:39.101Z,0.00
2016-08-13T00:10:40.087Z,0.00
2016-08-13T00:11:41.052Z,0.00
2016-08-13T00:12:40.966Z,0.00
2016-08-13T00:13:41.345Z,0.00
2016-08-13T00:14:41.733Z,0.00
2016-08-13T00:15:42.573Z,0.00
2016-08-13T00:16:42.637Z,0.00
2016-08-13T00:17:43.159Z,0.00
2016-08-13T00:18:43.830Z,0.00
2016-08-13T00:19:44.390Z,0.00
2016-08-13T00:20:44.914Z,0.00
2016-08-13T00:21:45.397Z,0.00
2016-08-13T00:22:45.933Z,0.00
2016-08-13T00:23:46.525Z,0.00
2016-08-13T00:24:47.157Z,0.00
2016-08-13T00:25:47.393Z,0.00
2016-08-13T00:26:47.900Z,0.00
2016-08-13T00:27:48.425Z,0.00
2016-08-13T00:28:49.407Z,0.00
2016-08-13T00:29:49.819Z,0.00
2016-08-13T00:30:50.001Z,0.00
2016-08-13T00:31:50.841Z,0.00
2016-08-13T00:32:51.345Z,0.00
2016-08-13T00:33:51.590Z,0.00
2016-08-13T00:34:52.409Z,0.00
2016-08-13T00:35:52.945Z,0.00
2016-08-13T00:36:53.595Z,0.00
2016-08-13T00:37:53.680Z,0.00
2016-08-13T00:38:54.367Z,0.00
2016-08-13T00:39:55.027Z,0.00
2016-08-13T00:40:55.708Z,0.00
2016-08-13T00:41:57.152Z,0.00
2016-08-13T00:42:56.625Z,0.00
2016-08-13T00:43:56.839Z,0.00
2016-08-13T00:44:57.369Z,0.00
2016-08-13T00:45:58.053Z,0.00
2016-08-13T00:46:58.583Z,0.00
2016-08-13T00:47:59.412Z,0.00
2016-08-13T00:48:59.779Z,0.00
2016-08-13T00:50:00.443Z,0.00
2016-08-13T00:51:00.817Z,0.00
2016-08-13T00:52:01.055Z,0.00
2016-08-13T00:53:01.879Z,0.00
2016-08-13T00:54:02.389Z,0.00
2016-08-13T00:55:02.907Z,0.00
2016-08-13T00:56:03.601Z,0.00
2016-08-13T00:57:03.817Z,0.00
2016-08-13T00:58:04.344Z,0.00
2016-08-13T00:59:04.891Z,0.00
2016-08-13T01:00:05.399Z,0.00
2016-08-13T01:01:05.819Z,0.00
2016-08-13T01:02:06.609Z,0.00
2016-08-13T01:03:06.888Z,0.00
2016-08-13T01:04:07.679Z,0.00
2016-08-13T01:05:07.904Z,0.00
2016-08-13T01:06:08.574Z,0.00
2016-08-13T01:07:09.407Z,0.00
2016-08-13T01:08:09.619Z,0.00
2016-08-13T01:09:10.158Z,0.00
2016-08-13T01:10:10.371Z,0.00
2016-08-13T01:11:11.328Z,0.00
2016-08-13T01:12:12.020Z,0.00
2016-08-13T01:13:12.268Z,0.00
2016-08-13T01:14:13.056Z,0.00
2016-08-13T01:15:13.448Z,0.00
2016-08-13T01:16:13.840Z,0.00
2016-08-13T01:17:14.202Z,0.00
2016-08-13T01:18:15.032Z,0.00
2016-08-13T01:19:15.104Z,0.00
2016-08-13T01:20:16.083Z,0.00
2016-08-13T01:21:16.466Z,0.00
2016-08-13T01:22:16.875Z,0.00
2016-08-13T01:23:17.345Z,0.00
2016-08-13T01:24:18.044Z,0.00
2016-08-13T01:25:18.394Z,0.00
2016-08-13T01:26:18.916Z,0.00
2016-08-13T01:27:19.600Z,0.00
2016-08-13T01:28:20.262Z,0.00
2016-08-13T01:29:20.783Z,0.00
2016-08-13T01:30:20.864Z,0.00
2016-08-13T01:31:21.548Z,0.00
2016-08-13T01:32:22.661Z,0.00
2016-08-13T01:33:22.594Z,0.00
2016-08-13T01:34:23.127Z,0.00
2016-08-13T01:35:23.940Z,0.00
2016-08-13T01:36:24.200Z,0.00
2016-08-13T01:37:24.708Z,0.00
2016-08-13T01:38:25.682Z,0.00
2016-08-13T01:39:25.629Z,0.00
2016-08-13T01:40:26.299Z,0.00
2016-08-13T01:41:26.957Z,0.00
2016-08-13T01:42:27.646Z,0.00
2016-08-13T01:43:28.030Z,0.00
2016-08-13T01:44:28.861Z,0.00
2016-08-13T01:45:29.083Z,0.00
2016-08-13T01:46:29.896Z,0.00
2016-08-13T01:47:31.617Z,0.00
2016-08-13T01:48:30.640Z,0.00
2016-08-13T01:49:31.159Z,0.00
2016-08-13T01:50:31.427Z,0.00
2016-08-13T01:51:32.371Z,0.00
2016-08-13T01:52:32.736Z,0.00
2016-08-13T01:53:33.266Z,0.00
2016-08-13T01:54:33.792Z,0.00
2016-08-13T01:55:34.318Z,0.00
2016-08-13T01:56:34.585Z,0.00
2016-08-13T01:57:35.082Z,0.00
2016-08-13T01:58:35.895Z,0.00
2016-08-13T01:59:36.447Z,0.00
2016-08-13T02:00:37.291Z,0.00
2016-08-13T02:01:37.483Z,0.00
2016-08-13T02:02:37.996Z,0.00
2016-08-13T02:03:38.388Z,0.00
2016-08-13T02:04:39.073Z,0.00
2016-08-13T02:05:39.885Z,0.00
2016-08-13T02:06:40.278Z,0.00
2016-08-13T02:07:40.771Z,0.00
2016-08-13T02:08:40.861Z,0.00
2016-08-13T02:09:41.978Z,0.00
2016-08-13T02:10:42.235Z,0.00
2016-08-13T02:11:42.792Z,0.00
2016-08-13T02:12:42.975Z,0.00
2016-08-13T02:13:43.675Z,0.00
2016-08-13T02:14:44.494Z,0.00
2016-08-13T02:15:44.718Z,0.00
2016-08-13T02:16:45.379Z,0.00
2016-08-13T02:17:46.344Z,0.00
2016-08-13T02:18:46.733Z,0.00
2016-08-13T02:19:46.962Z,0.00
2016-08-13T02:20:47.483Z,0.00
2016-08-13T02:21:48.151Z,0.00
2016-08-13T02:22:48.236Z,0.00
2016-08-13T02:23:48.911Z,0.00
2016-08-13T02:24:49.741Z,0.00
2016-08-13T02:25:50.392Z,0.00
2016-08-13T02:26:50.630Z,0.00
2016-08-13T02:27:51.302Z,0.00
2016-08-13T02:28:51.847Z,0.00
2016-08-13T02:29:52.207Z,0.00
2016-08-13T02:30:52.717Z,0.00
2016-08-13T02:31:53.259Z,0.00
2016-08-13T02:32:53.765Z,0.00
2016-08-13T02:33:54.153Z,0.00
2016-08-13T02:34:54.699Z,0.00
2016-08-13T02:35:57.147Z,0.00
2016-08-13T02:36:56.041Z,0.00
2016-08-13T02:37:56.427Z,0.00
2016-08-13T02:38:57.216Z,0.00
2016-08-13T02:39:57.300Z,0.00
2016-08-13T02:40:58.297Z,0.00
2016-08-13T02:41:58.501Z,0.00
2016-08-13T02:42:59.314Z,0.00
2016-08-13T02:43:59.401Z,0.00
2016-08-13T02:45:00.080Z,0.00
2016-08-13T02:46:00.749Z,0.00
2016-08-13T02:47:01.120Z,0.00
2016-08-13T02:48:01.802Z,0.00
2016-08-13T02:49:02.027Z,0.00
2016-08-13T02:50:02.847Z,0.00
2016-08-13T02:51:02.953Z,0.00
2016-08-13T02:52:03.624Z,0.00
2016-08-13T02:53:04.283Z,0.00
2016-08-13T02:54:05.251Z,0.00
2016-08-13T02:55:05.196Z,0.00
2016-08-13T02:56:06.005Z,0.00
2016-08-13T02:57:06.693Z,0.00
2016-08-13T02:58:07.058Z,0.00
2016-08-13T02:59:07.300Z,0.00
2016-08-13T03:00:07.677Z,0.00
2016-08-13T03:01:08.529Z,0.00
2016-08-13T03:02:09.162Z,0.00
2016-08-13T03:03:09.536Z,0.00
2016-08-13T03:04:10.242Z,0.00
2016-08-13T03:05:10.306Z,0.00
2016-08-13T03:06:10.961Z,0.00
2016-08-13T03:07:11.639Z,0.00
2016-08-13T03:08:12.180Z,0.00
2016-08-13T03:09:12.995Z,0.00
2016-08-13T03:10:13.214Z,0.00
2016-08-13T03:11:13.906Z,0.00
2016-08-13T03:12:14.423Z,0.00
2016-08-13T03:13:14.508Z,0.00
2016-08-13T03:14:15.344Z,0.00
2016-08-13T03:15:15.842Z,0.00
2016-08-13T03:16:16.669Z,0.00
2016-08-13T03:17:16.898Z,0.00
2016-08-13T03:18:17.433Z,0.00
2016-08-13T03:19:17.957Z,0.00
2016-08-13T03:20:18.496Z,0.00
2016-08-13T03:21:19.165Z,0.00
2016-08-13T03:22:19.528Z,0.00
2016-08-13T03:23:19.906Z,0.00
2016-08-13T03:24:20.596Z,0.00
2016-08-13T03:25:20.989Z,0.00
2016-08-13T03:26:21.496Z,0.00
2016-08-13T03:27:22.190Z,0.00
2016-08-13T03:28:22.856Z,0.00
2016-08-13T03:29:23.089Z,0.00
2016-08-13T03:30:23.474Z,0.00
2016-08-13T03:31:24.291Z,0.00
2016-08-13T03:32:24.989Z,0.00
2016-08-13T03:33:25.046Z,0.00
2016-08-13T03:34:25.872Z,0.00
2016-08-13T03:35:26.401Z,0.00
2016-08-13T03:36:27.080Z,0.00
2016-08-13T03:37:27.471Z,0.00
2016-08-13T03:38:27.996Z,0.00
2016-08-13T03:39:28.527Z,0.00
2016-08-13T03:40:28.892Z,0.00
2016-08-13T03:41:29.422Z,0.00
2016-08-13T03:42:30.228Z,0.00
2016-08-13T03:43:30.762Z,0.00
2016-08-13T03:44:31.286Z,0.00
2016-08-13T03:45:31.520Z,0.00
2016-08-13T03:46:32.063Z,0.00
2016-08-13T03:47:32.740Z,0.00
2016-08-13T03:48:33.121Z,0.00
2016-08-13T03:49:33.804Z,0.00
2016-08-13T03:50:34.334Z,0.00
2016-08-13T03:51:34.529Z,0.00
2016-08-13T03:52:35.262Z,0.00
2016-08-13T03:53:37.844Z,0.00
2016-08-13T03:54:36.559Z,0.00
2016-08-13T03:55:36.923Z,0.00
2016-08-13T03:56:37.315Z,0.00
2016-08-13T03:57:38.004Z,0.00
2016-08-13T03:58:38.525Z,0.00
2016-08-13T03:59:39.051Z,0.00
2016-08-13T04:00:39.739Z,0.00
2016-08-13T04:01:39.806Z,0.00
2016-08-13T04:02:40.629Z,0.00
2016-08-13T04:03:41.009Z,0.00
2016-08-13T04:04:42.154Z,0.00
2016-08-13T04:05:42.083Z,0.00
2016-08-13T04:06:42.784Z,0.00
2016-08-13T04:07:43.001Z,0.00
2016-08-13T04:08:43.820Z,0.00
2016-08-13T04:09:44.627Z,0.00
2016-08-13T04:10:44.740Z,0.00
2016-08-13T04:11:46.909Z,0.00
2016-08-13T04:12:45.909Z,0.00
2016-08-13T04:13:46.607Z,0.00
2016-08-13T04:14:46.965Z,0.00
2016-08-13T04:15:47.649Z,0.00
2016-08-13T04:16:47.746Z,0.00
2016-08-13T04:17:48.555Z,0.00
2016-08-13T04:18:49.069Z,1.00
2016-08-13T04:19:49.453Z,1.00
2016-08-13T04:20:50.283Z,1.00
2016-08-13T04:21:50.656Z,1.00
2016-08-13T04:22:51.042Z,1.00
2016-08-13T04:23:51.887Z,1.00
2016-08-13T04:24:52.090Z,1.00
2016-08-13T04:25:52.757Z,1.00
2016-08-13T04:26:53.315Z,1.00
2016-08-13T04:27:53.677Z,1.00
2016-08-13T04:28:54.351Z,1.00
2016-08-13T04:29:54.731Z,1.00
2016-08-13T04:30:55.424Z,1.00
2016-08-13T04:31:56.220Z,1.00
2016-08-13T04:32:56.598Z,1.00
2016-08-13T04:33:57.431Z,1.00
2016-08-13T04:34:57.657Z,1.00
2016-08-13T04:35:58.092Z,1.00
2016-08-13T04:36:58.704Z,1.00
2016-08-13T04:37:58.953Z,2.00
2016-08-13T04:38:59.492Z,2.00
2016-08-13T04:40:00.316Z,2.00
2016-08-13T04:41:00.691Z,2.00
2016-08-13T04:42:01.063Z,2.00
2016-08-13T04:43:01.884Z,2.00
2016-08-13T04:44:02.136Z,2.00
2016-08-13T04:45:02.847Z,2.00
2016-08-13T04:46:03.477Z,2.00
2016-08-13T04:47:03.855Z,2.00
2016-08-13T04:48:04.370Z,2.00
2016-08-13T04:49:04.755Z,2.00
2016-08-13T04:50:05.460Z,2.00
2016-08-13T04:51:05.948Z,3.00
2016-08-13T04:52:06.518Z,3.00
2016-08-13T04:53:07.018Z,3.00
2016-08-13T04:54:07.703Z,3.00
2016-08-13T04:55:08.061Z,3.00
2016-08-13T04:56:08.451Z,3.00
2016-08-13T04:57:09.279Z,3.00
2016-08-13T04:58:09.673Z,4.00
2016-08-13T04:59:10.018Z,4.00
2016-08-13T05:00:10.847Z,4.00
2016-08-13T05:01:11.373Z,4.00
2016-08-13T05:02:11.899Z,4.00
2016-08-13T05:03:12.138Z,4.00
2016-08-13T05:04:12.669Z,4.00
2016-08-13T05:05:13.633Z,4.00
2016-08-13T05:06:14.006Z,4.00
2016-08-13T05:07:14.239Z,4.00
2016-08-13T05:08:14.756Z,4.00
2016-08-13T05:09:15.438Z,4.00
2016-08-13T05:10:15.813Z,4.00
2016-08-13T05:11:16.648Z,4.00
2016-08-13T05:12:17.074Z,4.00
2016-08-13T05:13:17.567Z,4.00
2016-08-13T05:14:18.082Z,4.00
2016-08-13T05:15:18.743Z,4.00
2016-08-13T05:16:18.992Z,4.00
2016-08-13T05:17:19.519Z,4.00
2016-08-13T05:18:20.175Z,4.00
2016-08-13T05:19:20.707Z,4.00
2016-08-13T05:20:21.388Z,5.00
2016-08-13T05:21:21.920Z,5.00
2016-08-13T05:22:22.312Z,5.00
2016-08-13T05:23:23.134Z,5.00
2016-08-13T05:24:23.809Z,5.00
2016-08-13T05:25:23.758Z,5.00
2016-08-13T05:26:24.409Z,5.00
2016-08-13T05:27:24.958Z,5.00
2016-08-13T05:28:25.307Z,5.00
2016-08-13T05:29:25.840Z,5.00
2016-08-13T05:30:26.676Z,5.00
2016-08-13T05:31:27.208Z,5.00
2016-08-13T05:32:27.274Z,5.00
2016-08-13T05:33:27.937Z,6.00
2016-08-13T05:34:28.764Z,6.00
2016-08-13T05:35:29.161Z,6.00
2016-08-13T05:36:29.843Z,6.00
2016-08-13T05:37:30.067Z,7.00
2016-08-13T05:38:30.724Z,7.00
2016-08-13T05:39:31.430Z,8.00
2016-08-13T05:40:31.948Z,10.00
2016-08-13T05:41:32.314Z,11.00
2016-08-13T05:42:32.825Z,11.00
2016-08-13T05:43:33.501Z,11.00
2016-08-13T05:44:33.735Z,13.00
2016-08-13T05:45:34.580Z,14.00
2016-08-13T05:46:35.120Z,9.00
2016-08-13T05:47:35.776Z,8.00
2016-08-13T05:48:36.021Z,7.00
2016-08-13T05:49:36.383Z,6.00
2016-08-13T05:50:37.054Z,6.00
2016-08-13T05:51:37.729Z,6.00
2016-08-13T05:52:38.138Z,6.00
2016-08-13T05:53:38.641Z,6.00
2016-08-13T05:54:39.338Z,12.00
2016-08-13T05:55:39.863Z,13.00
2016-08-13T05:56:40.091Z,16.00
2016-08-13T05:57:40.983Z,15.00
2016-08-13T05:58:41.145Z,15.00
2016-08-13T05:59:41.678Z,15.00
2016-08-13T06:00:42.643Z,15.00
2016-08-13T06:01:42.878Z,12.00
2016-08-13T06:02:43.402Z,12.00
2016-08-13T06:03:43.791Z,12.00
2016-08-13T06:04:44.609Z,15.00
2016-08-13T06:05:45.166Z,20.00
2016-08-13T06:06:45.808Z,23.00
2016-08-13T06:07:46.203Z,23.00
2016-08-13T06:08:46.263Z,18.00
2016-08-13T06:09:47.244Z,18.00
2016-08-13T06:10:47.617Z,20.00
2016-08-13T06:11:48.052Z,22.00
2016-08-13T06:12:48.672Z,25.00
2016-08-13T06:13:49.521Z,24.00
2016-08-13T06:14:49.877Z,24.00
2016-08-13T06:15:50.257Z,24.00
2016-08-13T06:16:50.791Z,25.00
2016-08-13T06:17:51.451Z,19.00
2016-08-13T06:18:51.857Z,22.00
2016-08-13T06:19:52.255Z,21.00
2016-08-13T06:20:53.051Z,20.00
2016-08-13T06:21:53.563Z,22.00
2016-08-13T06:22:53.634Z,20.00
2016-08-13T06:23:54.346Z,22.00
2016-08-13T06:24:55.132Z,22.00
2016-08-13T06:25:55.519Z,21.00
2016-08-13T06:26:55.903Z,22.00
2016-08-13T06:27:56.408Z,20.00
2016-08-13T06:28:56.979Z,19.00
2016-08-13T06:29:57.467Z,20.00
2016-08-13T06:30:58.344Z,18.00
2016-08-13T06:31:58.821Z,20.00
2016-08-13T06:32:59.232Z,25.00
2016-08-13T06:33:59.880Z,19.00
2016-08-13T06:35:01.035Z,24.00
2016-08-13T06:36:00.651Z,22.00
2016-08-13T06:37:01.174Z,20.00
2016-08-13T06:38:01.976Z,20.00
2016-08-13T06:39:02.078Z,19.00
2016-08-13T06:40:03.043Z,20.00
2016-08-13T06:41:03.571Z,20.00
2016-08-13T06:42:04.383Z,21.00
2016-08-13T06:43:04.483Z,21.00
2016-08-13T06:44:04.756Z,21.00
2016-08-13T06:45:05.393Z,22.00
2016-08-13T06:46:06.344Z,23.00
2016-08-13T06:47:06.568Z,22.00
2016-08-13T06:48:07.102Z,24.00
2016-08-13T06:49:07.640Z,23.00
2016-08-13T06:50:08.449Z,25.00
2016-08-13T06:51:08.707Z,13.00
2016-08-13T06:52:09.083Z,26.00
2016-08-13T06:53:09.432Z,25.00
2016-08-13T06:54:10.255Z,28.00
2016-08-13T06:55:10.822Z,29.00
2016-08-13T06:56:11.315Z,29.00
2016-08-13T06:57:11.864Z,30.00
2016-08-13T06:58:12.214Z,30.00
2016-08-13T06:59:12.744Z,29.00
2016-08-13T07:00:13.572Z,28.00
2016-08-13T07:01:13.963Z,20.00
2016-08-13T07:02:14.178Z,28.00
2016-08-13T07:03:15.319Z,29.00
2016-08-13T07:04:15.364Z,30.00
2016-08-13T07:05:18.310Z,28.00
2016-08-13T07:06:16.486Z,13.00
2016-08-13T07:07:17.276Z,28.00
2016-08-13T07:08:17.378Z,31.00
2016-08-13T07:09:18.025Z,30.00
2016-08-13T07:10:18.688Z,30.00
2016-08-13T07:11:19.089Z,26.00
2016-08-13T07:12:20.040Z,33.00
2016-08-13T07:13:20.286Z,32.00
2016-08-13T07:14:20.812Z,31.00
2016-08-13T07:15:21.041Z,31.00
2016-08-13T07:16:21.720Z,33.00
2016-08-13T07:17:22.536Z,32.00
2016-08-13T07:18:23.056Z,28.00
2016-08-13T07:19:23.589Z,34.00
2016-08-13T07:20:23.834Z,34.00
2016-08-13T07:21:24.199Z,33.00
2016-08-13T07:22:24.877Z,34.00
2016-08-13T07:23:25.235Z,33.00
2016-08-13T07:24:25.907Z,34.00
2016-08-13T07:25:26.446Z,10.00
2016-08-13T07:26:27.126Z,33.00
2016-08-13T07:27:27.640Z,34.00
2016-08-13T07:28:28.187Z,34.00
2016-08-13T07:29:28.536Z,34.00
2016-08-13T07:30:29.382Z,35.00
2016-08-13T07:31:29.887Z,33.00
2016-08-13T07:32:30.281Z,35.00
2016-08-13T07:33:30.522Z,34.00
2016-08-13T07:34:31.472Z,32.00
2016-08-13T07:35:31.860Z,35.00
2016-08-13T07:36:32.681Z,36.00
2016-08-13T07:37:32.910Z,36.00
2016-08-13T07:38:33.277Z,36.00
2016-08-13T07:39:34.246Z,37.00
2016-08-13T07:40:34.625Z,37.00
2016-08-13T07:41:34.876Z,35.00
2016-08-13T07:42:35.388Z,37.00
2016-08-13T07:43:36.060Z,36.00
2016-08-13T07:44:36.448Z,37.00
2016-08-13T07:45:37.128Z,35.00
2016-08-13T07:46:37.662Z,37.00
2016-08-13T07:47:38.363Z,37.00
2016-08-13T07:48:38.439Z,37.00
2016-08-13T07:49:39.574Z,37.00
2016-08-13T07:50:39.763Z,37.00
2016-08-13T07:51:40.168Z,38.00
2016-08-13T07:52:41.140Z,38.00
2016-08-13T07:53:41.342Z,39.00
2016-08-13T07:54:41.888Z,39.00
2016-08-13T07:55:42.263Z,38.00
2016-08-13T07:56:43.067Z,39.00
2016-08-13T07:57:43.767Z,38.00
2016-08-13T07:58:43.982Z,31.00
2016-08-13T07:59:44.686Z,31.00
2016-08-13T08:00:44.883Z,12.00
2016-08-13T08:01:45.415Z,30.00
2016-08-13T08:02:46.228Z,39.00
2016-08-13T08:03:46.791Z,38.00
2016-08-13T08:04:47.025Z,38.00
2016-08-13T08:05:47.510Z,39.00
2016-08-13T08:06:48.189Z,39.00
2016-08-13T08:07:48.588Z,38.00
2016-08-13T08:08:49.554Z,39.00
2016-08-13T08:09:49.929Z,38.00
2016-08-13T08:10:50.330Z,39.00
2016-08-13T08:11:50.812Z,40.00
2016-08-13T08:12:51.040Z,39.00
2016-08-13T08:13:51.864Z,39.00
2016-08-13T08:14:52.396Z,39.00
2016-08-13T08:15:53.235Z,39.00
2016-08-13T08:16:53.472Z,39.00
2016-08-13T08:17:54.162Z,40.00
2016-08-13T08:18:54.242Z,40.00
2016-08-13T08:19:55.188Z,39.00
2016-08-13T08:20:55.466Z,40.00
2016-08-13T08:21:55.973Z,40.00
2016-08-13T08:22:56.796Z,40.00
2016-08-13T08:23:57.023Z,41.00
2016-08-13T08:24:57.524Z,41.00
2016-08-13T08:25:58.196Z,41.00
2016-08-13T08:26:58.738Z,40.00
2016-08-13T08:27:59.256Z,41.00
2016-08-13T08:28:59.921Z,40.00
2016-08-13T08:30:00.315Z,41.00
2016-08-13T08:31:00.825Z,41.00
2016-08-13T08:32:01.212Z,41.00
2016-08-13T08:33:02.048Z,41.00
2016-08-13T08:34:02.268Z,41.00
2016-08-13T08:35:03.234Z,41.00
2016-08-13T08:36:03.313Z,41.00
2016-08-13T08:37:04.287Z,41.00
2016-08-13T08:38:04.664Z,41.00
2016-08-13T08:39:05.033Z,41.00
2016-08-13T08:40:05.592Z,41.00
2016-08-13T08:41:08.035Z,42.00
2016-08-13T08:42:06.762Z,42.00
2016-08-13T08:43:07.283Z,42.00
2016-08-13T08:44:07.512Z,42.00
2016-08-13T08:45:08.193Z,42.00
2016-08-13T08:46:08.441Z,43.00
2016-08-13T08:47:09.548Z,41.00
2016-08-13T08:48:10.246Z,43.00
2016-08-13T08:49:10.476Z,43.00
2016-08-13T08:50:10.535Z,43.00
2016-08-13T08:51:11.513Z,43.00
2016-08-13T08:52:12.034Z,43.00
2016-08-13T08:53:12.398Z,42.00
2016-08-13T08:54:13.237Z,44.00
2016-08-13T08:55:13.303Z,43.00
2016-08-13T08:56:13.985Z,43.00
2016-08-13T08:57:14.387Z,43.00
2016-08-13T08:58:15.219Z,43.00
2016-08-13T08:59:16.923Z,43.00
2016-08-13T09:00:16.239Z,43.00
2016-08-13T09:01:16.489Z,43.00
2016-08-13T09:02:17.138Z,43.00
2016-08-13T09:03:17.697Z,43.00
2016-08-13T09:04:18.352Z,44.00
2016-08-13T09:05:18.740Z,43.00
2016-08-13T09:06:19.267Z,43.00
2016-08-13T09:07:19.644Z,43.00
2016-08-13T09:08:20.459Z,44.00
2016-08-13T09:09:21.121Z,44.00
2016-08-13T09:10:21.500Z,44.00
2016-08-13T09:11:21.898Z,44.00
2016-08-13T09:12:22.398Z,45.00
2016-08-13T09:13:23.068Z,45.00
2016-08-13T09:14:23.323Z,45.00
2016-08-13T09:15:23.983Z,45.00
2016-08-13T09:16:24.520Z,45.00
2016-08-13T09:17:25.026Z,45.00
2016-08-13T09:18:25.399Z,45.00
2016-08-13T09:19:26.403Z,45.00
2016-08-13T09:20:26.652Z,45.00
2016-08-13T09:21:27.011Z,45.00
2016-08-13T09:22:27.685Z,45.00
2016-08-13T09:23:28.057Z,45.00
2016-08-13T09:24:28.435Z,46.00
2016-08-13T09:25:29.248Z,45.00
2016-08-13T09:26:30.048Z,46.00
2016-08-13T09:27:30.291Z,46.00
2016-08-13T09:28:30.971Z,45.00
2016-08-13T09:29:31.932Z,46.00
2016-08-13T09:30:31.717Z,46.00
2016-08-13T09:31:32.685Z,46.00
2016-08-13T09:32:32.760Z,46.00
2016-08-13T09:33:33.301Z,46.00
2016-08-13T09:34:33.691Z,47.00
2016-08-13T09:35:34.493Z,47.00
2016-08-13T09:36:34.721Z,47.00
2016-08-13T09:37:35.862Z,48.00
2016-08-13T09:38:35.945Z,47.00
2016-08-13T09:39:36.770Z,48.00
2016-08-13T09:40:37.148Z,48.00
2016-08-13T09:41:37.642Z,48.00
2016-08-13T09:42:38.166Z,48.00
2016-08-13T09:43:38.857Z,49.00
2016-08-13T09:44:39.071Z,49.00
2016-08-13T09:45:39.748Z,49.00
2016-08-13T09:46:40.278Z,49.00
2016-08-13T09:47:40.818Z,50.00
2016-08-13T09:48:41.038Z,50.00
2016-08-13T09:49:41.991Z,50.00
2016-08-13T09:50:42.587Z,49.00
2016-08-13T09:51:42.768Z,48.00
2016-08-13T09:52:43.154Z,47.00
2016-08-13T09:53:44.100Z,44.00
2016-08-13T09:54:44.518Z,46.00
2016-08-13T09:55:45.006Z,42.00
2016-08-13T09:56:45.684Z,41.00
2016-08-13T09:57:46.211Z,44.00
2016-08-13T09:58:46.290Z,50.00
2016-08-13T09:59:47.253Z,49.00
2016-08-13T10:00:47.931Z,51.00
2016-08-13T10:01:48.173Z,52.00
2016-08-13T10:02:48.686Z,52.00
2016-08-13T10:03:48.914Z,54.00
2016-08-13T10:04:49.607Z,53.00
2016-08-13T10:05:50.139Z,54.00
2016-08-13T10:06:50.787Z,55.00
2016-08-13T10:07:51.468Z,52.00
2016-08-13T10:08:51.878Z,54.00
2016-08-13T10:09:52.397Z,53.00
2016-08-13T10:10:52.902Z,51.00
2016-08-13T10:11:53.432Z,40.00
2016-08-13T10:12:54.107Z,52.00
2016-08-13T10:13:54.508Z,51.00
2016-08-13T10:14:54.905Z,52.00
2016-08-13T10:15:55.382Z,50.00
2016-08-13T10:16:57.555Z,53.00
2016-08-13T10:17:56.901Z,53.00
2016-08-13T10:18:56.975Z,54.00
2016-08-13T10:19:57.521Z,57.00
2016-08-13T10:20:58.168Z,59.00
2016-08-13T10:21:58.980Z,54.00
2016-08-13T10:22:59.510Z,49.00
2016-08-13T10:23:59.736Z,47.00
2016-08-13T10:25:00.267Z,45.00
2016-08-13T10:26:00.636Z,38.00
2016-08-13T10:27:01.185Z,41.00
2016-08-13T10:28:01.998Z,43.00
2016-08-13T10:29:02.359Z,42.00
2016-08-13T10:30:03.059Z,41.00
2016-08-13T10:31:03.458Z,37.00
2016-08-13T10:32:04.121Z,38.00
2016-08-13T10:33:04.616Z,38.00
2016-08-13T10:34:04.854Z,38.00
2016-08-13T10:35:06.585Z,40.00
2016-08-13T10:36:05.897Z,46.00
2016-08-13T10:37:06.748Z,45.00
2016-08-13T10:38:07.100Z,44.00
2016-08-13T10:39:07.933Z,44.00
2016-08-13T10:40:08.016Z,40.00
2016-08-13T10:41:08.827Z,37.00
2016-08-13T10:42:09.210Z,38.00
2016-08-13T10:43:09.726Z,50.00
2016-08-13T10:44:10.264Z,46.00
2016-08-13T10:45:10.963Z,47.00
2016-08-13T10:46:11.469Z,49.00
2016-08-13T10:47:11.997Z,41.00
2016-08-13T10:48:12.370Z,55.00
2016-08-13T10:49:12.752Z,47.00
2016-08-13T10:50:13.444Z,45.00
2016-08-13T10:51:13.664Z,33.00
2016-08-13T10:52:14.617Z,34.00
2016-08-13T10:53:15.158Z,36.00
2016-08-13T10:54:15.703Z,40.00
2016-08-13T10:55:16.351Z,44.00
2016-08-13T10:56:16.574Z,41.00
2016-08-13T10:57:17.097Z,46.00
2016-08-13T10:58:17.346Z,51.00
2016-08-13T10:59:18.170Z,49.00
2016-08-13T11:00:18.832Z,49.00
2016-08-13T11:01:19.055Z,52.00
2016-08-13T11:02:19.577Z,54.00
2016-08-13T11:03:20.272Z,55.00
2016-08-13T11:04:20.788Z,55.00
2016-08-13T11:05:21.315Z,55.00
2016-08-13T11:06:21.994Z,56.00
2016-08-13T11:07:22.387Z,57.00
2016-08-13T11:08:23.044Z,57.00
2016-08-13T11:09:23.267Z,58.00
2016-08-13T11:10:23.798Z,58.00
2016-08-13T11:11:24.334Z,43.00
2016-08-13T11:12:25.303Z,58.00
2016-08-13T11:13:25.517Z,58.00
2016-08-13T11:14:26.338Z,59.00
2016-08-13T11:15:26.552Z,60.00
2016-08-13T11:16:27.082Z,59.00
2016-08-13T11:17:27.618Z,63.00
2016-08-13T11:18:28.173Z,49.00
2016-08-13T11:19:28.675Z,36.00
2016-08-13T11:20:28.903Z,43.00
2016-08-13T11:21:29.746Z,59.00
2016-08-13T11:22:30.109Z,59.00
2016-08-13T11:23:30.918Z,59.00
2016-08-13T11:24:31.163Z,59.00
2016-08-13T11:25:31.970Z,59.00
2016-08-13T11:26:32.505Z,59.00
2016-08-13T11:27:33.038Z,60.00
2016-08-13T11:28:33.121Z,60.00
2016-08-13T11:29:34.093Z,61.00
2016-08-13T11:30:34.592Z,58.00
2016-08-13T11:31:35.121Z,42.00
2016-08-13T11:32:35.374Z,61.00
2016-08-13T11:33:35.731Z,61.00
2016-08-13T11:34:36.716Z,60.00
2016-08-13T11:35:37.382Z,60.00
2016-08-13T11:36:37.918Z,60.00
2016-08-13T11:37:38.288Z,60.00
2016-08-13T11:38:38.983Z,61.00
2016-08-13T11:39:39.475Z,61.00
2016-08-13T11:40:39.576Z,62.00
2016-08-13T11:41:40.413Z,62.00
2016-08-13T11:42:40.600Z,62.00
2016-08-13T11:43:40.973Z,63.00
2016-08-13T11:44:41.947Z,63.00
2016-08-13T11:45:42.180Z,63.00
2016-08-13T11:46:42.709Z,64.00
2016-08-13T11:47:43.105Z,64.00
2016-08-13T11:48:43.788Z,64.00
2016-08-13T11:49:44.898Z,64.00
2016-08-13T11:50:44.824Z,65.00
2016-08-13T11:51:45.641Z,65.00
2016-08-13T11:52:45.734Z,64.00
2016-08-13T11:53:46.404Z,64.00
2016-08-13T11:54:47.262Z,64.00
2016-08-13T11:55:47.771Z,65.00
2016-08-13T11:56:47.860Z,67.00
2016-08-13T11:57:48.953Z,65.00
2016-08-13T11:58:49.066Z,53.00
2016-08-13T11:59:49.699Z,28.00
2016-08-13T12:00:50.073Z,49.00
2016-08-13T12:01:50.604Z,72.00
2016-08-13T12:02:51.608Z,65.00
2016-08-13T12:03:51.981Z,74.00
2016-08-13T12:04:52.358Z,74.00
2016-08-13T12:05:52.879Z,49.00
2016-08-13T12:07:40.706Z,41.00
2016-08-13T12:08:54.437Z,74.00
2016-08-13T12:09:54.969Z,75.00
2016-08-13T12:10:56.695Z,73.00
2016-08-13T12:11:56.153Z,75.00
2016-08-13T12:12:56.561Z,74.00
2016-08-13T12:13:57.052Z,77.00
2016-08-13T12:14:57.436Z,77.00
2016-08-13T12:15:58.279Z,33.00
2016-08-13T12:16:58.799Z,50.00
2016-08-13T12:17:59.174Z,80.00
2016-08-13T12:18:59.543Z,80.00
2016-08-13T12:20:00.236Z,78.00
2016-08-13T12:21:00.585Z,61.00
2016-08-13T12:22:01.264Z,81.00
2016-08-13T12:23:01.789Z,78.00
2016-08-13T12:24:02.613Z,68.00
2016-08-13T12:25:02.871Z,54.00
2016-08-13T12:26:03.219Z,28.00
2016-08-13T12:27:55.863Z,74.00
2016-08-13T12:29:05.254Z,76.00
2016-08-13T12:30:05.204Z,75.00
2016-08-13T12:31:06.013Z,75.00
2016-08-13T12:32:06.416Z,72.00
2016-08-13T12:33:06.799Z,73.00
2016-08-13T12:34:07.323Z,73.00
2016-08-13T12:35:08.569Z,72.00
2016-08-13T12:36:08.664Z,71.00
2016-08-13T12:37:09.177Z,73.00
2016-08-13T12:38:09.711Z,73.00
2016-08-13T12:39:10.247Z,73.00
2016-08-13T12:40:10.910Z,72.00
2016-08-13T12:41:11.787Z,74.00
2016-08-13T12:42:11.824Z,75.00
2016-08-13T12:43:12.190Z,75.00
2016-08-13T12:44:12.866Z,76.00
2016-08-13T12:45:13.390Z,75.00
2016-08-13T12:46:13.783Z,76.00
2016-08-13T12:47:14.173Z,76.00
2016-08-13T12:48:14.836Z,76.00
2016-08-13T12:49:15.502Z,77.00
2016-08-13T12:50:16.334Z,78.00
2016-08-13T12:51:16.389Z,77.00
2016-08-13T12:52:17.066Z,76.00
2016-08-13T12:53:17.506Z,76.00
2016-08-13T12:54:18.431Z,77.00
2016-08-13T12:55:18.661Z,76.00
2016-08-13T12:56:19.320Z,76.00
2016-08-13T12:57:19.706Z,75.00
2016-08-13T12:58:20.519Z,77.00
2016-08-13T12:59:20.607Z,78.00
2016-08-13T13:00:21.294Z,79.00
2016-08-13T13:01:21.675Z,18.00
2016-08-13T13:02:22.343Z,75.00
2016-08-13T13:03:23.007Z,71.00
2016-08-13T13:04:23.232Z,77.00
2016-08-13T13:05:23.938Z,78.00
2016-08-13T13:06:24.157Z,77.00
2016-08-13T13:07:25.417Z,76.00
2016-08-13T13:08:25.349Z,78.00
2016-08-13T13:09:25.869Z,79.00
2016-08-13T13:10:26.593Z,78.00
2016-08-13T13:11:26.919Z,78.00
2016-08-13T13:12:27.596Z,79.00